sensor_id;sensor_type;location;lat;lon;timestamp;pressure;altitude;pressure_sealevel;temperature;humidity
46778;BME280;32536;47.128;8.746;2023-04-01T00:01:45;90704.41;;;8.87;54.50
46778;BME280;32536;47.128;8.746;2023-04-01T00:04:12;90704.16;;;8.98;54.75
46778;BME280;32536;47.128;8.746;2023-04-01T00:06:38;90700.91;;;9.07;54.47
46778;BME280;32536;47.128;8.746;2023-04-01T00:09:05;90706.84;;;9.15;54.14
46778;BME280;32536;47.128;8.746;2023-04-01T00:11:32;90710.53;;;9.21;54.42
46778;BME280;32536;47.128;8.746;2023-04-01T00:13:59;90707.09;;;9.20;54.23
46778;BME280;32536;47.128;8.746;2023-04-01T00:16:26;90699.41;;;9.22;54.04
46778;BME280;32536;47.128;8.746;2023-04-01T00:18:52;90702.66;;;9.30;54.40
46778;BME280;32536;47.128;8.746;2023-04-01T00:21:19;90696.22;;;9.27;54.09
46778;BME280;32536;47.128;8.746;2023-04-01T00:23:48;90707.34;;;9.26;54.17
46778;BME280;32536;47.128;8.746;2023-04-01T00:26:16;90706.19;;;9.27;54.08
46778;BME280;32536;47.128;8.746;2023-04-01T00:28:46;90700.50;;;9.25;53.87
46778;BME280;32536;47.128;8.746;2023-04-01T00:31:14;90703.25;;;9.21;53.82
46778;BME280;32536;47.128;8.746;2023-04-01T00:33:41;90694.06;;;9.22;53.49
46778;BME280;32536;47.128;8.746;2023-04-01T00:36:12;90700.91;;;9.23;53.14
46778;BME280;32536;47.128;8.746;2023-04-01T00:38:41;90701.56;;;9.27;54.10
46778;BME280;32536;47.128;8.746;2023-04-01T00:41:10;90695.66;;;9.36;53.55
46778;BME280;32536;47.128;8.746;2023-04-01T00:43:42;90704.50;;;9.33;53.54
46778;BME280;32536;47.128;8.746;2023-04-01T00:46:10;90710.78;;;9.26;53.43
46778;BME280;32536;47.128;8.746;2023-04-01T00:48:41;90714.69;;;9.22;53.41
46778;BME280;32536;47.128;8.746;2023-04-01T00:51:16;90699.41;;;9.22;52.97
46778;BME280;32536;47.128;8.746;2023-04-01T00:53:52;90707.41;;;9.22;53.24
46778;BME280;32536;47.128;8.746;2023-04-01T00:56:24;90696.47;;;9.17;52.28
46778;BME280;32536;47.128;8.746;2023-04-01T00:58:58;90700.00;;;9.13;53.02
46778;BME280;32536;47.128;8.746;2023-04-01T01:01:28;90693.31;;;9.22;53.77
46778;BME280;32536;47.128;8.746;2023-04-01T01:03:56;90722.22;;;9.27;53.67
46778;BME280;32536;47.128;8.746;2023-04-01T01:06:46;90689.72;;;9.28;52.10
46778;BME280;32536;47.128;8.746;2023-04-01T01:12:20;90694.97;;;9.32;52.50
46778;BME280;32536;47.128;8.746;2023-04-01T01:31:54;90689.72;;;9.28;53.06
46778;BME280;32536;47.128;8.746;2023-04-01T01:37:19;90680.44;;;9.17;52.60
46778;BME280;32536;47.128;8.746;2023-04-01T01:39:52;90679.28;;;9.18;53.06
46778;BME280;32536;47.128;8.746;2023-04-01T01:42:23;90686.03;;;9.22;52.97
46778;BME280;32536;47.128;8.746;2023-04-01T01:44:53;90678.59;;;9.30;52.24
46778;BME280;32536;47.128;8.746;2023-04-01T01:47:23;90672.44;;;9.33;53.00
46778;BME280;32536;47.128;8.746;2023-04-01T01:49:51;90677.03;;;9.33;52.34
46778;BME280;32536;47.128;8.746;2023-04-01T01:52:18;90680.34;;;9.37;53.13
46778;BME280;32536;47.128;8.746;2023-04-01T01:54:53;90672.59;;;9.42;52.21
46778;BME280;32536;47.128;8.746;2023-04-01T01:57:31;90670.91;;;9.49;52.38
46778;BME280;32536;47.128;8.746;2023-04-01T02:00:07;90672.72;;;9.52;52.13
46778;BME280;32536;47.128;8.746;2023-04-01T02:02:40;90674.47;;;9.58;53.23
46778;BME280;32536;47.128;8.746;2023-04-01T02:05:13;90674.41;;;9.62;52.45
46778;BME280;32536;47.128;8.746;2023-04-01T02:07:47;90655.59;;;9.66;52.45
46778;BME280;32536;47.128;8.746;2023-04-01T02:10:21;90669.41;;;9.77;53.22
46778;BME280;32536;47.128;8.746;2023-04-01T02:12:51;90667.72;;;9.83;52.63
46778;BME280;32536;47.128;8.746;2023-04-01T02:15:24;90659.94;;;9.89;53.04
46778;BME280;32536;47.128;8.746;2023-04-01T02:17:56;90655.34;;;9.89;52.99
46778;BME280;32536;47.128;8.746;2023-04-01T02:20:24;90661.44;;;9.90;52.78
46778;BME280;32536;47.128;8.746;2023-04-01T02:22:53;90656.19;;;9.86;51.78
46778;BME280;32536;47.128;8.746;2023-04-01T02:25:27;90654.69;;;9.85;51.48
46778;BME280;32536;47.128;8.746;2023-04-01T02:27:57;90653.28;;;9.81;52.02
46778;BME280;32536;47.128;8.746;2023-04-01T02:30:27;90646.19;;;9.74;50.47
46778;BME280;32536;47.128;8.746;2023-04-01T02:32:56;90643.19;;;9.72;51.52
46778;BME280;32536;47.128;8.746;2023-04-01T02:35:25;90644.88;;;9.66;52.29
46778;BME280;32536;47.128;8.746;2023-04-01T02:37:55;90653.97;;;9.68;52.09
46778;BME280;32536;47.128;8.746;2023-04-01T02:40:22;90648.63;;;9.68;51.86
46778;BME280;32536;47.128;8.746;2023-04-01T02:42:49;90646.78;;;9.65;51.82
46778;BME280;32536;47.128;8.746;2023-04-01T02:45:16;90642.13;;;9.69;52.67
46778;BME280;32536;47.128;8.746;2023-04-01T02:47:43;90645.88;;;9.72;52.19
46778;BME280;32536;47.128;8.746;2023-04-01T02:50:10;90650.78;;;9.73;52.32
46778;BME280;32536;47.128;8.746;2023-04-01T02:52:37;90650.88;;;9.70;51.39
46778;BME280;32536;47.128;8.746;2023-04-01T02:55:06;90653.97;;;9.68;50.78
46778;BME280;32536;47.128;8.746;2023-04-01T02:57:33;90639.84;;;9.68;51.28
46778;BME280;32536;47.128;8.746;2023-04-01T03:00:00;90642.53;;;9.68;51.88
46778;BME280;32536;47.128;8.746;2023-04-01T03:02:26;90647.47;;;9.69;52.02
46778;BME280;32536;47.128;8.746;2023-04-01T03:04:53;90646.59;;;9.72;51.12
46778;BME280;32536;47.128;8.746;2023-04-01T03:07:20;90640.91;;;9.70;50.84
46778;BME280;32536;47.128;8.746;2023-04-01T03:09:46;90618.06;;;9.69;50.95
46778;BME280;32536;47.128;8.746;2023-04-01T03:12:13;90629.91;;;9.68;50.65
46778;BME280;32536;47.128;8.746;2023-04-01T03:14:40;90637.16;;;9.68;50.42
46778;BME280;32536;47.128;8.746;2023-04-01T03:17:07;90635.34;;;9.65;49.86
46778;BME280;32536;47.128;8.746;2023-04-01T03:19:33;90640.97;;;9.54;49.54
46778;BME280;32536;47.128;8.746;2023-04-01T03:22:00;90643.75;;;9.50;49.61
46778;BME280;32536;47.128;8.746;2023-04-01T03:24:27;90634.13;;;9.53;49.90
46778;BME280;32536;47.128;8.746;2023-04-01T03:26:53;90638.22;;;9.57;50.22
46778;BME280;32536;47.128;8.746;2023-04-01T03:29:20;90634.13;;;9.53;48.46
46778;BME280;32536;47.128;8.746;2023-04-01T03:31:47;90626.53;;;9.51;49.93
46778;BME280;32536;47.128;8.746;2023-04-01T03:34:14;90633.06;;;9.50;49.04
46778;BME280;32536;47.128;8.746;2023-04-01T03:36:40;90637.13;;;9.55;50.05
46778;BME280;32536;47.128;8.746;2023-04-01T03:39:07;90635.53;;;9.57;49.73
46778;BME280;32536;47.128;8.746;2023-04-01T03:41:36;90638.47;;;9.63;50.41
46778;BME280;32536;47.128;8.746;2023-04-01T03:44:03;90639.75;;;9.71;50.19
46778;BME280;32536;47.128;8.746;2023-04-01T03:46:29;90641.59;;;9.74;49.68
46778;BME280;32536;47.128;8.746;2023-04-01T03:48:56;90640.91;;;9.70;49.39
46778;BME280;32536;47.128;8.746;2023-04-01T03:51:23;90638.59;;;9.72;50.60
46778;BME280;32536;47.128;8.746;2023-04-01T03:53:50;90647.38;;;9.73;49.87
46778;BME280;32536;47.128;8.746;2023-04-01T03:56:16;90646.59;;;9.72;49.16
46778;BME280;32536;47.128;8.746;2023-04-01T03:58:43;90643.28;;;9.68;50.04
46778;BME280;32536;47.128;8.746;2023-04-01T04:01:18;90649.25;;;9.59;45.72
46778;BME280;32536;47.128;8.746;2023-04-01T04:03:46;90656.06;;;9.60;50.01
46778;BME280;32536;47.128;8.746;2023-04-01T04:06:16;90641.22;;;9.59;49.64
46778;BME280;32536;47.128;8.746;2023-04-01T04:08:43;90646.66;;;9.56;49.74
46778;BME280;32536;47.128;8.746;2023-04-01T04:11:10;90644.41;;;9.54;50.33
46778;BME280;32536;47.128;8.746;2023-04-01T04:13:38;90648.25;;;9.53;50.13
46778;BME280;32536;47.128;8.746;2023-04-01T04:16:05;90650.94;;;9.53;49.91
46778;BME280;32536;47.128;8.746;2023-04-01T04:18:33;90656.69;;;9.52;50.28
46778;BME280;32536;47.128;8.746;2023-04-01T04:20:59;90657.84;;;9.51;49.98
46778;BME280;32536;47.128;8.746;2023-04-01T04:23:26;90648.75;;;9.48;49.80
46778;BME280;32536;47.128;8.746;2023-04-01T04:26:02;90657.13;;;9.50;49.39
46778;BME280;32536;47.128;8.746;2023-04-01T04:28:30;90660.34;;;9.58;50.66
46778;BME280;32536;47.128;8.746;2023-04-01T04:30:58;90653.31;;;9.64;50.64
46778;BME280;32536;47.128;8.746;2023-04-01T04:33:25;90658.06;;;9.73;50.83
46778;BME280;32536;47.128;8.746;2023-04-01T04:35:56;90665.16;;;9.80;50.19
46778;BME280;32536;47.128;8.746;2023-04-01T04:38:23;90665.78;;;9.84;50.69
46778;BME280;32536;47.128;8.746;2023-04-01T04:40:50;90664.97;;;9.87;49.99
46778;BME280;32536;47.128;8.746;2023-04-01T04:43:18;90667.97;;;9.89;50.07
46778;BME280;32536;47.128;8.746;2023-04-01T04:45:45;90672.97;;;9.87;50.09
46778;BME280;32536;47.128;8.746;2023-04-01T04:48:14;90650.69;;;9.77;46.50
46778;BME280;32536;47.128;8.746;2023-04-01T04:50:47;90655.41;;;9.73;48.39
46778;BME280;32536;47.128;8.746;2023-04-01T04:53:24;90659.16;;;9.75;48.24
46778;BME280;32536;47.128;8.746;2023-04-01T04:55:51;90658.72;;;9.77;49.02
46778;BME280;32536;47.128;8.746;2023-04-01T04:58:19;90682.69;;;9.81;49.89
46778;BME280;32536;47.128;8.746;2023-04-01T05:00:46;90680.38;;;9.83;49.35
46778;BME280;32536;47.128;8.746;2023-04-01T05:03:13;90699.47;;;9.81;49.23
46778;BME280;32536;47.128;8.746;2023-04-01T05:05:48;90696.88;;;9.65;49.04
46778;BME280;32536;47.128;8.746;2023-04-01T05:08:17;90689.28;;;9.63;50.22
46778;BME280;32536;47.128;8.746;2023-04-01T05:10:44;90684.09;;;9.56;50.63
46778;BME280;32536;47.128;8.746;2023-04-01T05:13:11;90668.25;;;9.49;50.73
46778;BME280;32536;47.128;8.746;2023-04-01T05:15:37;90688.72;;;9.39;50.86
46778;BME280;32536;47.128;8.746;2023-04-01T05:18:05;90684.28;;;9.32;51.03
46778;BME280;32536;47.128;8.746;2023-04-01T05:20:32;90701.91;;;9.29;51.07
46778;BME280;32536;47.128;8.746;2023-04-01T05:22:59;90706.53;;;9.29;51.25
46778;BME280;32536;47.128;8.746;2023-04-01T05:25:26;90691.66;;;9.28;51.10
46778;BME280;32536;47.128;8.746;2023-04-01T05:27:53;90697.25;;;9.17;51.31
46778;BME280;32536;47.128;8.746;2023-04-01T05:30:20;90678.44;;;9.21;51.50
46778;BME280;32536;47.128;8.746;2023-04-01T05:32:47;90696.47;;;9.17;51.49
46778;BME280;32536;47.128;8.746;2023-04-01T05:35:14;90699.16;;;9.17;51.65
46778;BME280;32536;47.128;8.746;2023-04-01T05:37:40;90687.97;;;9.22;51.95
46778;BME280;32536;47.128;8.746;2023-04-01T05:40:08;90701.91;;;9.29;51.39
46778;BME280;32536;47.128;8.746;2023-04-01T05:42:35;90711.53;;;9.27;51.92
46778;BME280;32536;47.128;8.746;2023-04-01T05:45:01;90697.72;;;9.28;51.79
46778;BME280;32536;47.128;8.746;2023-04-01T05:47:28;90697.41;;;9.26;51.55
46778;BME280;32536;47.128;8.746;2023-04-01T05:49:55;90695.91;;;9.25;51.71
46778;BME280;32536;47.128;8.746;2023-04-01T05:52:22;90697.72;;;9.28;51.80
46778;BME280;32536;47.128;8.746;2023-04-01T05:54:49;90702.41;;;9.24;51.58
46778;BME280;32536;47.128;8.746;2023-04-01T05:57:16;90706.53;;;9.29;51.98
46778;BME280;32536;47.128;8.746;2023-04-01T05:59:42;90718.53;;;9.37;51.84
46778;BME280;32536;47.128;8.746;2023-04-01T06:02:10;90693.22;;;9.42;51.93
46778;BME280;32536;47.128;8.746;2023-04-01T06:04:38;90689.19;;;9.50;52.03
46778;BME280;32536;47.128;8.746;2023-04-01T06:07:14;90691.69;;;9.57;50.20
46778;BME280;32536;47.128;8.746;2023-04-01T06:09:42;90694.19;;;9.65;51.56
46778;BME280;32536;47.128;8.746;2023-04-01T06:12:29;90699.88;;;9.67;51.08
46778;BME280;32536;47.128;8.746;2023-04-01T06:18:31;90699.00;;;9.70;50.08
46778;BME280;32536;47.128;8.746;2023-04-01T06:27:10;90703.38;;;9.64;47.17
46778;BME280;32536;47.128;8.746;2023-04-01T06:32:50;90693.84;;;9.63;46.33
46778;BME280;32536;47.128;8.746;2023-04-01T06:35:58;90689.19;;;9.67;50.36
46778;BME280;32536;47.128;8.746;2023-04-01T06:39:15;90702.84;;;9.69;46.56
46778;BME280;32536;47.128;8.746;2023-04-01T06:45:16;90711.00;;;9.94;49.26
46778;BME280;32536;47.128;8.746;2023-04-01T06:54:17;90708.88;;;10.02;48.47
46778;BME280;32536;47.128;8.746;2023-04-01T06:56:50;90723.88;;;10.00;47.60
46778;BME280;32536;47.128;8.746;2023-04-01T06:59:27;90693.75;;;9.96;48.78
46778;BME280;32536;47.128;8.746;2023-04-01T07:01:59;90691.19;;;9.92;49.25
46778;BME280;32536;47.128;8.746;2023-04-01T07:04:37;90682.31;;;9.95;47.70
46778;BME280;32536;47.128;8.746;2023-04-01T07:07:27;90674.06;;;9.89;46.25
46778;BME280;32536;47.128;8.746;2023-04-01T07:10:09;90690.97;;;9.86;49.96
46778;BME280;32536;47.128;8.746;2023-04-01T07:12:52;90687.84;;;9.88;49.42
46778;BME280;32536;47.128;8.746;2023-04-01T07:15:22;90700.38;;;9.91;46.81
46778;BME280;32536;47.128;8.746;2023-04-01T07:17:53;90690.97;;;9.86;46.39
46778;BME280;32536;47.128;8.746;2023-04-01T07:20:36;90700.16;;;9.85;48.92
46778;BME280;32536;47.128;8.746;2023-04-01T07:23:23;90711.16;;;9.87;47.65
46778;BME280;32536;47.128;8.746;2023-04-01T07:26:04;90707.56;;;9.94;48.89
46778;BME280;32536;47.128;8.746;2023-04-01T07:28:39;90710.06;;;10.01;50.40
46778;BME280;32536;47.128;8.746;2023-04-01T07:37:16;90716.22;;;9.85;49.90
46778;BME280;32536;47.128;8.746;2023-04-01T07:39:58;90701.00;;;9.82;50.23
46778;BME280;32536;47.128;8.746;2023-04-01T07:42:44;90713.94;;;9.84;51.09
46778;BME280;32536;47.128;8.746;2023-04-01T07:46:02;90718.63;;;9.80;50.24
46778;BME280;32536;47.128;8.746;2023-04-01T07:49:29;90720.16;;;9.81;50.79
46778;BME280;32536;47.128;8.746;2023-04-01T07:52:06;90724.84;;;9.76;50.62
46778;BME280;32536;47.128;8.746;2023-04-01T08:00:27;90723.69;;;9.61;51.74
46778;BME280;32536;47.128;8.746;2023-04-01T08:08:56;90734.47;;;9.57;52.09
46778;BME280;32536;47.128;8.746;2023-04-01T08:17:16;90734.63;;;9.67;51.99
46778;BME280;32536;47.128;8.746;2023-04-01T08:20:04;90723.09;;;9.70;51.53
46778;BME280;32536;47.128;8.746;2023-04-01T08:23:00;90729.94;;;9.71;51.91
46778;BME280;32536;47.128;8.746;2023-04-01T08:25:46;90749.31;;;9.75;51.50
46778;BME280;32536;47.128;8.746;2023-04-01T08:28:41;90748.22;;;9.72;52.14
46778;BME280;32536;47.128;8.746;2023-04-01T08:31:29;90746.81;;;9.68;52.24
46778;BME280;32536;47.128;8.746;2023-04-01T08:34:03;90748.09;;;9.63;51.96
46778;BME280;32536;47.128;8.746;2023-04-01T08:36:37;90733.22;;;9.62;51.97
46778;BME280;32536;47.128;8.746;2023-04-01T08:39:15;90750.59;;;9.54;51.77
46778;BME280;32536;47.128;8.746;2023-04-01T08:48:04;90745.59;;;9.39;52.80
46778;BME280;32536;47.128;8.746;2023-04-01T08:50:44;90742.09;;;9.42;52.65
46778;BME280;32536;47.128;8.746;2023-04-01T08:56:19;90730.22;;;9.43;52.82
46778;BME280;32536;47.128;8.746;2023-04-01T08:59:05;90730.88;;;9.48;52.46
46778;BME280;32536;47.128;8.746;2023-04-01T09:02:08;90732.53;;;9.58;53.07
46778;BME280;32536;47.128;8.746;2023-04-01T09:05:18;90740.34;;;9.52;52.87
46778;BME280;32536;47.128;8.746;2023-04-01T09:22:36;90740.38;;;9.65;52.87
46778;BME280;32536;47.128;8.746;2023-04-01T09:25:43;90740.91;;;9.60;52.62
46778;BME280;32536;47.128;8.746;2023-04-01T09:28:50;90745.59;;;9.56;52.71
46778;BME280;32536;47.128;8.746;2023-04-01T09:52:10;90738.22;;;9.76;51.93
46778;BME280;32536;47.128;8.746;2023-04-01T10:00:36;90744.69;;;9.92;53.34
46778;BME280;32536;47.128;8.746;2023-04-01T10:03:39;90739.69;;;9.94;53.06
46778;BME280;32536;47.128;8.746;2023-04-01T10:15:34;90727.28;;;10.30;51.88
46778;BME280;32536;47.128;8.746;2023-04-01T10:19:24;90721.22;;;10.42;52.54
46778;BME280;32536;47.128;8.746;2023-04-01T10:33:34;90723.09;;;10.71;51.67
46778;BME280;32536;47.128;8.746;2023-04-01T10:39:29;90711.75;;;10.80;52.02
46778;BME280;32536;47.128;8.746;2023-04-01T10:57:02;90729.00;;;11.04;46.87
46778;BME280;32536;47.128;8.746;2023-04-01T11:02:45;90718.81;;;10.86;49.07
46778;BME280;32536;47.128;8.746;2023-04-01T11:15:08;90708.31;;;11.05;46.33
46778;BME280;32536;47.128;8.746;2023-04-01T11:33:22;90723.09;;;11.35;45.10
46778;BME280;32536;47.128;8.746;2023-04-01T11:42:32;90722.91;;;11.04;45.45
46778;BME280;32536;47.128;8.746;2023-04-01T12:00:33;90720.09;;;11.08;45.36
46778;BME280;32536;47.128;8.746;2023-04-01T12:02:55;90722.13;;;11.16;47.38
46778;BME280;32536;47.128;8.746;2023-04-01T12:17:33;90716.72;;;11.55;44.58
46778;BME280;32536;47.128;8.746;2023-04-01T12:23:30;90735.63;;;11.51;42.63
46778;BME280;32536;47.128;8.746;2023-04-01T12:26:07;90719.09;;;11.53;47.30
46778;BME280;32536;47.128;8.746;2023-04-01T12:37:47;90701.41;;;11.43;43.68
46778;BME280;32536;47.128;8.746;2023-04-01T12:46:54;90727.78;;;11.57;45.17
46778;BME280;32536;47.128;8.746;2023-04-01T12:52:21;90733.78;;;11.48;44.75
46778;BME280;32536;47.128;8.746;2023-04-01T13:04:51;90744.84;;;11.37;46.47
46778;BME280;32536;47.128;8.746;2023-04-01T13:07:41;90732.75;;;11.20;47.75
46778;BME280;32536;47.128;8.746;2023-04-01T13:10:50;90734.03;;;11.15;48.01
46778;BME280;32536;47.128;8.746;2023-04-01T13:13:45;90726.00;;;11.15;48.26
46778;BME280;32536;47.128;8.746;2023-04-01T13:16:27;90734.13;;;11.12;46.59
46778;BME280;32536;47.128;8.746;2023-04-01T13:19:03;90725.25;;;11.15;47.56
46778;BME280;32536;47.128;8.746;2023-04-01T13:21:49;90725.25;;;11.15;46.71
46778;BME280;32536;47.128;8.746;2023-04-01T13:27:44;90723.66;;;11.30;47.71
46778;BME280;32536;47.128;8.746;2023-04-01T13:32:52;90717.28;;;11.50;46.85
46778;BME280;32536;47.128;8.746;2023-04-01T13:38:46;90715.50;;;11.69;45.99
46778;BME280;32536;47.128;8.746;2023-04-01T13:45:14;90709.28;;;11.72;42.28
46778;BME280;32536;47.128;8.746;2023-04-01T13:54:05;90702.19;;;11.78;43.14
46778;BME280;32536;47.128;8.746;2023-04-01T13:57:33;90704.06;;;11.91;43.83
46778;BME280;32536;47.128;8.746;2023-04-01T14:03:01;90700.38;;;12.10;43.15
46778;BME280;32536;47.128;8.746;2023-04-01T14:12:30;90709.06;;;12.37;47.15
46778;BME280;32536;47.128;8.746;2023-04-01T14:15:27;90701.81;;;12.46;47.34
46778;BME280;32536;47.128;8.746;2023-04-01T14:27:03;90706.03;;;12.57;45.74
46778;BME280;32536;47.128;8.746;2023-04-01T14:35:37;90690.22;;;12.59;46.91
46778;BME280;32536;47.128;8.746;2023-04-01T14:41:35;90685.59;;;12.59;43.09
46778;BME280;32536;47.128;8.746;2023-04-01T14:49:47;90690.59;;;12.70;45.23
46778;BME280;32536;47.128;8.746;2023-04-01T14:52:24;90684.22;;;12.55;41.23
46778;BME280;32536;47.128;8.746;2023-04-01T14:54:56;90694.69;;;12.53;44.02
46778;BME280;32536;47.128;8.746;2023-04-01T14:57:29;90690.81;;;12.54;42.92
46778;BME280;32536;47.128;8.746;2023-04-01T15:02:57;90690.31;;;12.46;41.85
46778;BME280;32536;47.128;8.746;2023-04-01T15:05:49;90696.31;;;12.50;46.13
46778;BME280;32536;47.128;8.746;2023-04-01T15:12:06;90699.13;;;12.46;42.65
46778;BME280;32536;47.128;8.746;2023-04-01T15:15:13;90703.31;;;12.47;41.74
46778;BME280;32536;47.128;8.746;2023-04-01T15:18:08;90703.91;;;12.52;46.06
46778;BME280;32536;47.128;8.746;2023-04-01T15:21:13;90717.03;;;12.49;43.31
46778;BME280;32536;47.128;8.746;2023-04-01T15:35:46;90706.56;;;12.20;47.30
46778;BME280;32536;47.128;8.746;2023-04-01T15:43:41;90713.22;;;12.15;47.49
46778;BME280;32536;47.128;8.746;2023-04-01T15:46:24;90705.75;;;12.10;44.53
46778;BME280;32536;47.128;8.746;2023-04-01T15:52:13;90701.25;;;12.29;47.79
46778;BME280;32536;47.128;8.746;2023-04-01T15:55:00;90702.34;;;12.41;48.43
46778;BME280;32536;47.128;8.746;2023-04-01T16:03:56;90703.28;;;12.70;48.54
46778;BME280;32536;47.128;8.746;2023-04-01T16:06:52;90698.84;;;12.76;48.14
46778;BME280;32536;47.128;8.746;2023-04-01T16:12:01;90714.81;;;12.79;44.93
46778;BME280;32536;47.128;8.746;2023-04-01T16:15:06;90716.19;;;12.84;46.97
46778;BME280;32536;47.128;8.746;2023-04-01T16:20:49;90713.06;;;12.86;47.10
46778;BME280;32536;47.128;8.746;2023-04-01T16:23:59;90722.91;;;12.89;47.07
46778;BME280;32536;47.128;8.746;2023-04-01T16:26:47;90718.75;;;12.88;47.18
46778;BME280;32536;47.128;8.746;2023-04-01T16:29:27;90714.13;;;12.88;47.81
46778;BME280;32536;47.128;8.746;2023-04-01T16:32:38;90709.94;;;12.87;47.15
46778;BME280;32536;47.128;8.746;2023-04-01T16:38:26;90718.47;;;12.95;47.02
46778;BME280;32536;47.128;8.746;2023-04-01T16:43:52;90723.81;;;12.86;44.47
46778;BME280;32536;47.128;8.746;2023-04-01T16:46:32;90726.00;;;12.78;46.17
46778;BME280;32536;47.128;8.746;2023-04-01T16:49:24;90722.38;;;12.72;48.09
46778;BME280;32536;47.128;8.746;2023-04-01T16:57:30;90732.84;;;12.47;45.78
46778;BME280;32536;47.128;8.746;2023-04-01T17:00:25;90742.16;;;12.33;47.31
46778;BME280;32536;47.128;8.746;2023-04-01T17:03:22;90742.09;;;12.24;46.28
46778;BME280;32536;47.128;8.746;2023-04-01T17:11:17;90772.56;;;11.95;49.24
46778;BME280;32536;47.128;8.746;2023-04-01T17:25:20;90777.44;;;10.97;51.02
46778;BME280;32536;47.128;8.746;2023-04-01T17:34:33;90778.44;;;10.48;50.57
46778;BME280;32536;47.128;8.746;2023-04-01T17:37:20;90799.63;;;10.26;52.97
46778;BME280;32536;47.128;8.746;2023-04-01T17:40:05;90805.34;;;10.12;52.70
46778;BME280;32536;47.128;8.746;2023-04-01T17:45:45;90803.63;;;9.88;53.24
46778;BME280;32536;47.128;8.746;2023-04-01T17:48:43;90788.91;;;9.80;52.81
46778;BME280;32536;47.128;8.746;2023-04-01T17:51:32;90787.34;;;9.83;52.95
46778;BME280;32536;47.128;8.746;2023-04-01T17:57:45;90791.34;;;9.91;53.57
46778;BME280;32536;47.128;8.746;2023-04-01T18:02:57;90791.84;;;10.02;52.10
46778;BME280;32536;47.128;8.746;2023-04-01T18:05:45;90794.25;;;10.13;51.09
46778;BME280;32536;47.128;8.746;2023-04-01T18:08:54;90805.50;;;10.21;52.51
46778;BME280;32536;47.128;8.746;2023-04-01T18:14:18;90800.25;;;10.17;52.22
46778;BME280;32536;47.128;8.746;2023-04-01T18:17:30;90809.78;;;10.18;51.12
46778;BME280;32536;47.128;8.746;2023-04-01T18:20:42;90806.13;;;10.12;51.47
46778;BME280;32536;47.128;8.746;2023-04-01T18:23:36;90812.63;;;10.11;51.69
46778;BME280;32536;47.128;8.746;2023-04-01T18:26:31;90810.53;;;10.19;51.60
46778;BME280;32536;47.128;8.746;2023-04-01T18:29:11;90807.56;;;10.30;51.05
46778;BME280;32536;47.128;8.746;2023-04-01T18:31:48;90819.63;;;10.38;51.51
46778;BME280;32536;47.128;8.746;2023-04-01T18:34:43;90813.41;;;10.41;51.09
46778;BME280;32536;47.128;8.746;2023-04-01T18:37:32;90812.50;;;10.48;51.35
46778;BME280;32536;47.128;8.746;2023-04-01T18:40:23;90810.81;;;10.54;51.29
46778;BME280;32536;47.128;8.746;2023-04-01T18:43:27;90814.34;;;10.64;51.45
46778;BME280;32536;47.128;8.746;2023-04-01T18:46:08;90821.44;;;10.70;51.25
46778;BME280;32536;47.128;8.746;2023-04-01T18:52:27;90821.97;;;10.65;50.74
46778;BME280;32536;47.128;8.746;2023-04-01T18:57:52;90832.50;;;10.72;51.38
46778;BME280;32536;47.128;8.746;2023-04-01T19:00:32;90839.25;;;10.77;50.73
46778;BME280;32536;47.128;8.746;2023-04-01T19:06:13;90841.66;;;10.88;50.85
46778;BME280;32536;47.128;8.746;2023-04-01T19:08:47;90841.31;;;10.86;51.48
46778;BME280;32536;47.128;8.746;2023-04-01T19:17:07;90855.38;;;10.61;51.23
46778;BME280;32536;47.128;8.746;2023-04-01T19:19:42;90860.97;;;10.66;50.88
46778;BME280;32536;47.128;8.746;2023-04-01T19:34:09;90878.22;;;10.65;50.87
46778;BME280;32536;47.128;8.746;2023-04-01T19:37:03;90865.16;;;10.67;51.13
46778;BME280;32536;47.128;8.746;2023-04-01T19:45:48;90882.50;;;10.63;50.73
46778;BME280;32536;47.128;8.746;2023-04-01T19:48:46;90887.31;;;10.68;50.74
46778;BME280;32536;47.128;8.746;2023-04-01T19:51:56;90884.09;;;10.60;50.52
46778;BME280;32536;47.128;8.746;2023-04-01T19:54:33;90885.34;;;10.55;50.58
46778;BME280;32536;47.128;8.746;2023-04-01T19:57:20;90879.00;;;10.49;50.90
46778;BME280;32536;47.128;8.746;2023-04-01T20:14:04;90894.22;;;10.36;51.18
46778;BME280;32536;47.128;8.746;2023-04-01T20:19:28;90892.34;;;10.36;50.97
46778;BME280;32536;47.128;8.746;2023-04-01T20:22:08;90893.00;;;10.40;51.00
46778;BME280;32536;47.128;8.746;2023-04-01T20:24:58;90897.19;;;10.41;51.26
46778;BME280;32536;47.128;8.746;2023-04-01T20:27:55;90892.81;;;10.48;50.87
46778;BME280;32536;47.128;8.746;2023-04-01T20:36:06;90893.97;;;10.63;51.11
46778;BME280;32536;47.128;8.746;2023-04-01T20:51:15;90907.53;;;10.56;50.60
46778;BME280;32536;47.128;8.746;2023-04-01T21:02:46;90901.63;;;9.99;51.18
46778;BME280;32536;47.128;8.746;2023-04-01T21:05:58;90914.16;;;9.85;50.12
46778;BME280;32536;47.128;8.746;2023-04-01T21:20:12;90932.56;;;10.00;50.78
46778;BME280;32536;47.128;8.746;2023-04-01T21:25:50;90939.06;;;9.82;51.67
46778;BME280;32536;47.128;8.746;2023-04-01T21:38:04;90941.22;;;9.71;52.24
46778;BME280;32536;47.128;8.746;2023-04-01T21:47:08;90943.53;;;9.69;51.97
46778;BME280;32536;47.128;8.746;2023-04-01T22:04:52;90954.47;;;10.11;51.72
46778;BME280;32536;47.128;8.746;2023-04-01T22:10:57;90956.41;;;10.27;51.30
46778;BME280;32536;47.128;8.746;2023-04-01T22:16:43;90956.44;;;10.44;51.00
46778;BME280;32536;47.128;8.746;2023-04-01T22:19:50;90952.25;;;10.43;49.15
46778;BME280;32536;47.128;8.746;2023-04-01T22:25:33;90950.13;;;10.50;50.74
46778;BME280;32536;47.128;8.746;2023-04-01T22:28:14;90956.91;;;10.55;50.37
46778;BME280;32536;47.128;8.746;2023-04-01T22:30:52;90950.31;;;10.60;50.96
46778;BME280;32536;47.128;8.746;2023-04-01T22:37:05;90950.13;;;10.67;50.82
46778;BME280;32536;47.128;8.746;2023-04-01T22:40:16;90953.63;;;10.64;51.08
46778;BME280;32536;47.128;8.746;2023-04-01T22:43:00;90956.31;;;10.64;50.90
46778;BME280;32536;47.128;8.746;2023-04-01T22:45:48;90953.97;;;10.66;51.60
46778;BME280;32536;47.128;8.746;2023-04-01T22:48:40;90958.06;;;10.70;51.53
46778;BME280;32536;47.128;8.746;2023-04-01T22:51:38;90955.63;;;10.76;51.64